createdAt,value
2019-03-28T00:00:16.939Z,58.8
2019-03-28T00:01:06.958Z,58.8
2019-03-28T00:01:57.287Z,58.8
2019-03-28T00:02:47.338Z,58.8
2019-03-28T00:03:36.565Z,58.8
2019-03-28T00:04:26.631Z,58.8
2019-03-28T00:05:17.029Z,58.8
2019-03-28T00:06:07.578Z,58.7
2019-03-28T00:06:57.383Z,58.7
2019-03-28T00:07:47.690Z,58.7
2019-03-28T00:08:37.208Z,58.7
2019-03-28T00:09:27.553Z,58.7
2019-03-28T00:10:17.893Z,58.6
2019-03-28T00:11:07.472Z,58.6
2019-03-28T00:11:58.099Z,58.7
2019-03-28T00:12:47.515Z,58.6
2019-03-28T00:13:37.843Z,58.6
2019-03-28T00:14:27.910Z,58.6
2019-03-28T00:15:17.973Z,58.6
2019-03-28T00:16:08.022Z,58.6
2019-03-28T00:21:57.967Z,58.5
2019-03-28T00:23:38.370Z,58.5
2019-03-28T00:24:28.447Z,58.5
2019-03-28T00:25:18.490Z,58.5
2019-03-28T00:26:08.275Z,58.5
2019-03-28T00:26:58.705Z,58.5
2019-03-28T00:27:49.170Z,58.5
2019-03-28T00:28:39.435Z,58.5
2019-03-28T00:29:29.392Z,58.4
2019-03-28T00:30:19.167Z,58.4
2019-03-28T00:31:09.734Z,58.4
2019-03-28T00:31:58.520Z,58.4
2019-03-28T00:32:48.506Z,58.4
2019-03-28T00:33:38.259Z,58.4
2019-03-28T00:34:29.174Z,58.4
2019-03-28T00:35:18.679Z,58.4
2019-03-28T00:36:08.994Z,58.4
2019-03-28T00:36:59.324Z,58.4
2019-03-28T00:37:49.866Z,58.4
2019-03-28T00:38:39.366Z,58.4
2019-03-28T00:39:29.171Z,58.3
2019-03-28T00:40:20.058Z,58.3
2019-03-28T00:41:09.371Z,58.3
2019-03-28T00:41:59.131Z,58.3
2019-03-28T00:42:50.231Z,58.3
2019-03-28T00:43:39.544Z,58.3
2019-03-28T00:44:30.348Z,58.3
2019-03-28T00:45:19.676Z,58.3
2019-03-28T00:46:10.198Z,58.3
2019-03-28T00:47:00.011Z,58.3
2019-03-28T00:47:50.313Z,58.3
2019-03-28T00:48:40.653Z,58.3
2019-03-28T00:49:30.429Z,58.3
2019-03-28T00:50:20.501Z,58.3
2019-03-28T00:51:10.338Z,58.2
2019-03-28T00:52:00.643Z,58.2
2019-03-28T00:52:50.968Z,58.2
2019-03-28T00:53:41.026Z,58.2
2019-03-28T00:54:31.063Z,58.2
2019-03-28T00:55:21.135Z,58.2
2019-03-28T00:56:10.930Z,58.1
2019-03-28T00:57:01.353Z,58.1
2019-03-28T00:57:51.324Z,58.1
2019-03-28T00:58:40.810Z,58.1
2019-03-28T00:59:31.983Z,58.1
2019-03-28T01:00:20.703Z,58.1
2019-03-28T01:01:11.560Z,58.1
2019-03-28T01:02:01.640Z,58.1
2019-03-28T01:02:51.419Z,58.1
2019-03-28T01:03:41.754Z,58.1
2019-03-28T01:04:31.537Z,58.1
2019-03-28T01:05:21.862Z,58.1
2019-03-28T01:06:11.650Z,58.1
2019-03-28T01:07:01.249Z,58.1
2019-03-28T01:07:51.566Z,58
2019-03-28T01:08:41.428Z,58
2019-03-28T01:09:32.340Z,58
2019-03-28T01:10:22.689Z,58
2019-03-28T01:11:12.651Z,58
2019-03-28T01:12:02.191Z,58
2019-03-28T01:12:52.112Z,58
2019-03-28T01:13:42.179Z,57.9
2019-03-28T01:14:31.775Z,57.9
2019-03-28T01:15:21.542Z,57.9
2019-03-28T01:16:11.597Z,57.9
2019-03-28T01:17:02.154Z,57.9
2019-03-28T01:17:52.479Z,57.9
2019-03-28T01:18:42.835Z,57.9
2019-03-28T01:19:32.402Z,57.9
2019-03-28T01:20:21.929Z,57.9
2019-03-28T01:21:12.529Z,57.9
2019-03-28T01:22:02.779Z,57.9
2019-03-28T01:22:52.576Z,57.9
2019-03-28T01:23:43.182Z,57.9
2019-03-28T01:24:33.244Z,57.8
2019-03-28T01:25:23.054Z,57.8
2019-03-28T01:26:13.094Z,57.8
2019-03-28T01:27:03.427Z,57.8
2019-03-28T01:27:53.938Z,57.8
2019-03-28T01:28:44.131Z,57.8
2019-03-28T01:34:34.190Z,57.7
2019-03-28T01:35:24.701Z,57.7
2019-03-28T01:36:14.593Z,57.7
2019-03-28T01:37:04.685Z,57.7
2019-03-28T01:37:54.486Z,57.7
2019-03-28T01:38:44.417Z,57.7
2019-03-28T01:39:35.173Z,57.7
2019-03-28T01:40:24.128Z,57.6
2019-03-28T01:41:14.183Z,57.7
2019-03-28T01:42:04.529Z,57.6
2019-03-28T01:42:53.706Z,57.6
2019-03-28T01:43:44.378Z,57.6
2019-03-28T01:44:34.180Z,57.6
2019-03-28T01:45:24.493Z,57.6
2019-03-28T01:46:14.537Z,57.6
2019-03-28T01:47:04.618Z,57.6
2019-03-28T01:47:53.550Z,57.6
2019-03-28T01:48:45.047Z,57.6
2019-03-28T01:49:34.532Z,57.6
2019-03-28T01:50:24.842Z,57.6
2019-03-28T01:51:14.611Z,57.6
2019-03-28T01:52:08.142Z,57.5
2019-03-28T01:52:55.292Z,57.5
2019-03-28T01:53:44.797Z,57.5
2019-03-28T01:54:35.160Z,57.5
2019-03-28T01:55:25.188Z,57.5
2019-03-28T01:56:15.547Z,57.5
2019-03-28T01:57:16.230Z,57.4
2019-03-28T01:57:55.649Z,57.4
2019-03-28T01:58:45.709Z,57.4
2019-03-28T01:59:35.504Z,57.4
2019-03-28T02:00:25.557Z,57.4
2019-03-28T02:01:15.614Z,57.4
2019-03-28T02:02:05.120Z,57.4
2019-03-28T02:02:56.022Z,57.4
2019-03-28T02:03:45.872Z,57.4
2019-03-28T02:04:35.875Z,57.4
2019-03-28T02:05:25.969Z,57.4
2019-03-28T02:06:15.989Z,57.4
2019-03-28T02:07:06.054Z,57.4
2019-03-28T02:07:55.554Z,57.3
2019-03-28T02:08:46.179Z,57.3
2019-03-28T02:09:36.569Z,57.3
2019-03-28T02:10:26.548Z,57.3
2019-03-28T02:11:17.277Z,57.3
2019-03-28T02:12:07.356Z,57.3
2019-03-28T02:12:57.357Z,57.3
2019-03-28T02:13:46.257Z,57.3
2019-03-28T02:14:36.593Z,57.3
2019-03-28T02:15:26.669Z,57.3
2019-03-28T02:16:16.424Z,57.3
2019-03-28T02:17:06.533Z,57.3
2019-03-28T02:17:56.827Z,57.3
2019-03-28T02:18:46.878Z,57.2
2019-03-28T02:19:37.216Z,57.2
2019-03-28T02:20:27.303Z,57.2
2019-03-28T02:21:17.102Z,57.2
2019-03-28T02:22:06.941Z,57.2
2019-03-28T02:22:56.983Z,57.2
2019-03-28T02:23:46.773Z,57.2
2019-03-28T02:24:36.830Z,57.1
2019-03-28T02:25:27.653Z,57.1
2019-03-28T02:26:17.147Z,57.1
2019-03-28T02:27:06.732Z,57.1
2019-03-28T02:27:57.080Z,57.1
2019-03-28T02:28:47.615Z,57.1
2019-03-28T02:29:37.676Z,57.1
2019-03-28T02:30:29.082Z,57.1
2019-03-28T02:31:19.390Z,57.1
2019-03-28T02:32:07.598Z,57.1
2019-03-28T02:32:57.956Z,57.1
2019-03-28T02:33:48.007Z,57.1
2019-03-28T02:34:37.550Z,57.1
2019-03-28T02:35:27.566Z,57
2019-03-28T02:36:18.264Z,57
2019-03-28T02:37:08.281Z,57
2019-03-28T02:37:58.692Z,57
2019-03-28T02:38:48.655Z,57
2019-03-28T02:39:38.460Z,57
2019-03-28T02:40:28.493Z,56.9
2019-03-28T02:41:18.562Z,56.9
2019-03-28T02:42:08.348Z,56.9
2019-03-28T02:42:58.773Z,56.9
2019-03-28T02:43:49.097Z,56.9
2019-03-28T02:44:40.015Z,56.9
2019-03-28T02:45:30.474Z,56.9
2019-03-28T02:46:18.359Z,56.9
2019-03-28T02:47:09.307Z,56.9
2019-03-28T02:47:59.313Z,56.9
2019-03-28T02:48:49.437Z,56.9
2019-03-28T02:49:39.137Z,56.9
2019-03-28T02:50:29.472Z,56.8
2019-03-28T02:51:19.575Z,56.8
2019-03-28T02:52:09.347Z,56.8
2019-03-28T02:52:59.120Z,56.8
2019-03-28T02:53:49.887Z,56.8
2019-03-28T02:54:39.813Z,56.8
2019-03-28T02:55:29.580Z,56.8
2019-03-28T02:56:20.185Z,56.8
2019-03-28T02:57:11.266Z,56.8
2019-03-28T02:57:59.729Z,56.8
2019-03-28T02:58:50.101Z,56.8
2019-03-28T02:59:39.907Z,56.8
2019-03-28T03:00:29.933Z,56.8
2019-03-28T03:01:20.329Z,56.7
2019-03-28T03:02:10.912Z,56.7
2019-03-28T03:03:00.483Z,56.7
2019-03-28T03:03:50.190Z,56.7
2019-03-28T03:07:20.789Z,56.6
2019-03-28T03:08:11.997Z,56.7
2019-03-28T03:09:02.221Z,56.6
2019-03-28T03:09:52.549Z,56.6
2019-03-28T03:10:40.988Z,56.6
2019-03-28T03:11:31.288Z,56.6
2019-03-28T03:12:20.895Z,56.6
2019-03-28T03:13:11.429Z,56.6
2019-03-28T03:14:01.751Z,56.6
2019-03-28T03:14:51.520Z,56.6
2019-03-28T03:15:41.843Z,56.6
2019-03-28T03:16:31.625Z,56.6
2019-03-28T03:17:21.425Z,56.6
2019-03-28T03:18:12.036Z,56.6
2019-03-28T03:19:02.747Z,56.5
2019-03-28T03:19:52.919Z,56.5
2019-03-28T03:20:41.651Z,56.5
2019-03-28T03:21:32.001Z,56.5
2019-03-28T03:22:22.056Z,56.5
2019-03-28T03:23:12.112Z,56.5
2019-03-28T03:24:02.218Z,56.4
2019-03-28T03:24:52.655Z,56.4
2019-03-28T03:25:42.419Z,56.4
2019-03-28T03:26:32.378Z,56.4
2019-03-28T03:27:22.424Z,56.4
2019-03-28T03:28:12.450Z,56.4
2019-03-28T03:29:02.569Z,56.4
2019-03-28T03:29:52.609Z,56.4
2019-03-28T03:30:43.013Z,56.4
2019-03-28T03:31:33.109Z,56.4
2019-03-28T03:32:23.302Z,56.4
2019-03-28T03:33:13.678Z,56.4
2019-03-28T03:34:05.262Z,56.3
2019-03-28T03:34:53.383Z,56.3
2019-03-28T03:35:43.307Z,56.3
2019-03-28T03:36:33.086Z,56.3
2019-03-28T03:37:22.386Z,56.3
2019-03-28T03:38:12.711Z,56.3
2019-03-28T03:39:03.103Z,56.3
2019-03-28T03:39:53.586Z,56.3
2019-03-28T03:40:43.387Z,56.3
2019-03-28T03:41:33.442Z,56.3
2019-03-28T03:42:23.514Z,56.3
2019-03-28T03:43:13.587Z,56.3
2019-03-28T03:44:03.933Z,56.3
2019-03-28T03:44:53.941Z,56.3
2019-03-28T03:45:44.075Z,56.2
2019-03-28T03:46:33.529Z,56.2
2019-03-28T03:47:23.655Z,56.2
2019-03-28T03:48:15.151Z,56.2
2019-03-28T03:49:05.133Z,56.2
2019-03-28T03:49:54.320Z,56.2
2019-03-28T03:50:44.157Z,56.1
2019-03-28T03:51:34.201Z,56.1
2019-03-28T03:52:24.522Z,56.1
2019-03-28T03:53:14.260Z,56.1
2019-03-28T03:54:04.075Z,56.1
2019-03-28T03:54:54.785Z,56.1
2019-03-28T03:55:44.739Z,56.1
2019-03-28T03:56:34.819Z,56.1
2019-03-28T03:57:24.868Z,56.1
2019-03-28T03:58:21.972Z,56.1
2019-03-28T03:59:04.419Z,56.1
2019-03-28T03:59:54.768Z,56.1
2019-03-28T04:00:44.854Z,56.1
2019-03-28T04:01:35.177Z,56
2019-03-28T04:02:24.404Z,56
2019-03-28T04:03:14.749Z,56
2019-03-28T04:04:05.398Z,56
2019-03-28T04:04:59.983Z,56
2019-03-28T04:05:45.440Z,56
2019-03-28T04:06:34.475Z,56
2019-03-28T04:07:25.092Z,55.9
2019-03-28T04:08:15.688Z,55.9
2019-03-28T04:09:05.704Z,55.9
2019-03-28T04:09:55.513Z,55.9
2019-03-28T04:10:45.537Z,55.9
2019-03-28T04:11:35.710Z,55.9
2019-03-28T04:12:26.273Z,55.9
2019-03-28T04:13:15.726Z,55.9
2019-03-28T04:14:06.201Z,55.9
2019-03-28T04:14:55.838Z,55.9
2019-03-28T04:15:45.947Z,55.9
2019-03-28T04:16:36.268Z,55.9
2019-03-28T04:17:26.025Z,55.9
2019-03-28T04:18:17.185Z,55.9
2019-03-28T04:19:06.860Z,55.8
2019-03-28T04:19:56.499Z,55.8
2019-03-28T04:20:46.034Z,55.8
2019-03-28T04:21:36.324Z,55.8
2019-03-28T04:22:26.645Z,55.8
2019-03-28T04:23:16.190Z,55.8
2019-03-28T04:24:06.890Z,55.8
2019-03-28T04:24:56.871Z,55.8
2019-03-28T04:25:46.753Z,55.8
2019-03-28T04:26:36.444Z,55.8
2019-03-28T04:27:26.740Z,55.8
2019-03-28T04:28:35.443Z,55.7
2019-03-28T04:29:08.213Z,55.7
2019-03-28T04:29:58.127Z,55.7
2019-03-28T04:30:46.750Z,55.7
2019-03-28T04:31:37.065Z,55.7
2019-03-28T04:32:27.374Z,55.7
2019-03-28T04:33:17.429Z,55.7
2019-03-28T04:34:13.100Z,55.7
2019-03-28T04:34:57.584Z,55.6
2019-03-28T04:35:48.628Z,55.6
2019-03-28T04:36:37.200Z,55.6
2019-03-28T04:37:27.763Z,55.6
2019-03-28T04:38:17.535Z,55.6
2019-03-28T04:39:07.582Z,55.6
2019-03-28T04:39:57.629Z,55.6
2019-03-28T04:40:47.966Z,55.6
2019-03-28T04:41:37.762Z,55.6
2019-03-28T04:42:28.077Z,55.6
2019-03-28T04:43:17.415Z,55.5
2019-03-28T04:44:07.735Z,55.5
2019-03-28T04:44:58.245Z,55.5
2019-03-28T04:45:48.018Z,55.5
2019-03-28T04:46:38.378Z,55.4
2019-03-28T04:47:28.452Z,55.4
2019-03-28T04:48:18.225Z,55.4
2019-03-28T04:49:08.269Z,55.4
2019-03-28T04:49:58.335Z,55.4
2019-03-28T04:50:48.387Z,55.4
2019-03-28T04:51:38.441Z,55.4
2019-03-28T04:52:31.668Z,55.4
2019-03-28T04:53:18.878Z,55.4
2019-03-28T04:54:11.444Z,55.4
2019-03-28T04:54:59.043Z,55.4
2019-03-28T04:55:49.240Z,55.3
2019-03-28T04:56:39.758Z,55.3
2019-03-28T04:57:30.093Z,55.3
2019-03-28T04:58:23.865Z,55.3
2019-03-28T04:59:09.257Z,55.3
2019-03-28T04:59:58.508Z,55.3
2019-03-28T05:00:49.464Z,55.3
2019-03-28T05:01:39.447Z,55.3
2019-03-28T05:02:29.547Z,55.3
2019-03-28T05:03:19.703Z,55.3
2019-03-28T05:04:09.794Z,55.3
2019-03-28T05:04:59.695Z,55.2
2019-03-28T05:05:49.755Z,55.2
2019-03-28T05:06:41.235Z,55.2
2019-03-28T05:07:29.581Z,55.2
2019-03-28T05:08:19.387Z,55.2
2019-03-28T05:09:10.010Z,55.2
2019-03-28T05:09:59.795Z,55.1
2019-03-28T05:10:50.089Z,55.2
2019-03-28T05:11:39.731Z,55.1
2019-03-28T05:12:30.226Z,55.1
2019-03-28T05:13:21.287Z,55.1
2019-03-28T05:14:11.298Z,55.1
2019-03-28T05:15:00.422Z,55.1
2019-03-28T05:15:50.482Z,55.1
2019-03-28T05:16:40.529Z,55.1
2019-03-28T05:17:30.289Z,55
2019-03-28T05:18:20.372Z,55
2019-03-28T05:19:10.436Z,55
2019-03-28T05:20:00.957Z,55
2019-03-28T05:20:50.821Z,55
2019-03-28T05:21:40.989Z,55
2019-03-28T05:22:30.666Z,54.9
2019-03-28T05:23:21.006Z,54.9
2019-03-28T05:24:10.788Z,54.9
2019-03-28T05:25:02.233Z,54.9
2019-03-28T05:25:51.959Z,54.9
2019-03-28T05:26:41.984Z,54.9
2019-03-28T05:27:30.752Z,54.9
2019-03-28T05:28:21.161Z,54.9
2019-03-28T05:29:11.426Z,54.9
2019-03-28T05:30:00.943Z,54.9
2019-03-28T05:30:51.262Z,54.9
2019-03-28T05:31:41.334Z,54.8
2019-03-28T05:32:31.188Z,54.8
2019-03-28T05:33:21.717Z,54.8
2019-03-28T05:34:12.245Z,54.8
2019-03-28T05:35:02.718Z,54.8
2019-03-28T05:35:52.280Z,54.8
2019-03-28T05:36:42.066Z,54.8
2019-03-28T05:37:31.469Z,54.8
2019-03-28T05:38:21.618Z,54.8
2019-03-28T05:39:11.663Z,54.8
2019-03-28T05:40:02.345Z,54.7
2019-03-28T05:40:51.992Z,54.7
2019-03-28T05:41:41.925Z,54.7
2019-03-28T05:42:32.372Z,54.7
2019-03-28T05:43:22.449Z,54.7
2019-03-28T05:44:12.235Z,54.7
2019-03-28T05:45:02.829Z,54.7
2019-03-28T05:45:52.390Z,54.7
2019-03-28T05:46:42.692Z,54.6
2019-03-28T05:47:33.392Z,54.6
2019-03-28T05:48:22.535Z,54.6
2019-03-28T05:49:12.582Z,54.6
2019-03-28T05:50:02.951Z,54.6
2019-03-28T05:50:52.417Z,54.6
2019-03-28T05:51:42.768Z,54.6
2019-03-28T05:52:32.763Z,54.6
2019-03-28T05:53:23.637Z,54.6
2019-03-28T05:54:12.215Z,54.5
2019-03-28T05:55:06.180Z,54.5
2019-03-28T05:55:52.887Z,54.4
2019-03-28T05:56:43.391Z,54.4
2019-03-28T05:57:33.461Z,54.4
2019-03-28T05:58:23.529Z,54.4
2019-03-28T05:59:15.042Z,54.4
2019-03-28T06:00:03.837Z,54.4
2019-03-28T06:00:55.029Z,54.4
2019-03-28T06:01:43.742Z,54.4
2019-03-28T06:02:33.814Z,54.4
2019-03-28T06:03:23.589Z,54.3
2019-03-28T06:05:21.111Z,54.3
2019-03-28T06:06:11.181Z,54.3
2019-03-28T06:07:50.999Z,54.3
2019-03-28T06:08:42.189Z,54.3
2019-03-28T06:09:46.209Z,54.3
2019-03-28T06:10:21.474Z,54.3
2019-03-28T06:11:11.426Z,54.3
2019-03-28T06:12:01.308Z,54.2
2019-03-28T06:12:51.408Z,54.2
2019-03-28T06:13:41.911Z,54.2
2019-03-28T06:14:31.473Z,54.2
2019-03-28T06:15:21.548Z,54.2
2019-03-28T06:16:11.597Z,54.2
2019-03-28T06:17:52.494Z,54.1
2019-03-28T06:18:42.066Z,54.1
2019-03-28T06:19:32.298Z,54.1
2019-03-28T06:20:21.343Z,54.1
2019-03-28T06:21:11.934Z,54.1
2019-03-28T06:22:02.290Z,54.1
2019-03-28T06:22:52.563Z,54.1
2019-03-28T06:23:42.910Z,54.1
2019-03-28T06:24:33.006Z,54.1
2019-03-28T06:25:25.472Z,54.1
2019-03-28T06:26:12.129Z,54.1
2019-03-28T06:27:01.881Z,54.1
2019-03-28T06:27:52.234Z,54
2019-03-28T06:28:41.465Z,54
2019-03-28T06:29:32.062Z,54
2019-03-28T06:30:22.860Z,54
2019-03-28T06:31:13.767Z,54
2019-03-28T06:32:03.952Z,54
2019-03-28T06:32:52.802Z,53.9
2019-03-28T06:33:42.847Z,53.9
2019-03-28T06:34:32.687Z,53.9
2019-03-28T06:35:25.812Z,53.9
2019-03-28T06:36:14.312Z,53.9
2019-03-28T06:37:03.095Z,53.9
2019-03-28T06:37:55.455Z,53.9
2019-03-28T06:38:43.202Z,53.9
2019-03-28T06:39:32.977Z,53.9
2019-03-28T06:40:23.594Z,53.9
2019-03-28T06:41:13.139Z,53.9
2019-03-28T06:42:03.197Z,53.9
2019-03-28T06:42:53.514Z,53.9
2019-03-28T06:43:45.399Z,53.8
2019-03-28T06:44:33.360Z,53.8
2019-03-28T06:45:23.721Z,53.8
2019-03-28T06:46:14.032Z,53.8
2019-03-28T06:47:03.801Z,53.8
2019-03-28T06:47:53.877Z,53.8
2019-03-28T06:48:43.379Z,53.8
2019-03-28T06:49:33.717Z,53.8
2019-03-28T06:50:24.343Z,53.8
2019-03-28T06:51:14.097Z,53.8
2019-03-28T06:52:04.159Z,53.8
2019-03-28T06:52:54.489Z,53.8
2019-03-28T06:53:44.274Z,53.7
2019-03-28T06:54:34.757Z,53.7
2019-03-28T06:55:28.751Z,53.7
2019-03-28T06:56:14.463Z,53.7
2019-03-28T06:57:04.536Z,53.7
2019-03-28T06:57:54.647Z,53.6
2019-03-28T06:58:44.368Z,53.6
2019-03-28T06:59:41.152Z,53.6
2019-03-28T07:00:24.753Z,53.6
2019-03-28T07:01:15.083Z,53.6
2019-03-28T07:02:05.153Z,53.6
2019-03-28T07:02:54.720Z,53.6
2019-03-28T07:05:24.686Z,53.6
2019-03-28T07:06:10.625Z,53.6
2019-03-28T07:07:00.690Z,53.5
2019-03-28T07:07:50.773Z,53.5
2019-03-28T07:08:40.817Z,53.6
2019-03-28T07:09:31.340Z,53.5
2019-03-28T07:10:21.136Z,53.5
2019-03-28T07:11:11.187Z,53.5
2019-03-28T07:12:00.770Z,53.5
2019-03-28T07:12:50.797Z,53.4
2019-03-28T07:13:41.156Z,53.4
2019-03-28T07:14:31.562Z,53.4
2019-03-28T07:15:22.457Z,53.4
2019-03-28T07:16:11.337Z,53.4
2019-03-28T07:17:01.398Z,53.4
2019-03-28T07:17:51.180Z,53.4
2019-03-28T07:18:41.517Z,53.4
2019-03-28T07:19:31.649Z,53.4
2019-03-28T07:20:21.065Z,53.4
2019-03-28T07:21:11.242Z,53.4
2019-03-28T07:22:01.409Z,53.3
2019-03-28T07:22:51.489Z,53.3
2019-03-28T07:23:42.112Z,53.3
2019-03-28T07:24:32.144Z,53.3
2019-03-28T07:25:25.388Z,53.3
2019-03-28T07:26:12.279Z,53.3
2019-03-28T07:27:01.825Z,53.3
2019-03-28T07:27:52.186Z,53.3
2019-03-28T07:28:41.404Z,53.3
2019-03-28T07:29:32.289Z,53.3
2019-03-28T07:30:22.721Z,53.3
2019-03-28T07:31:12.572Z,53.3
2019-03-28T07:32:02.474Z,53.3
2019-03-28T07:32:52.294Z,53.2
2019-03-28T07:33:42.604Z,53.2
2019-03-28T07:34:32.374Z,53.2
2019-03-28T07:35:22.706Z,53.2
2019-03-28T07:36:12.778Z,53.2
2019-03-28T07:37:02.564Z,53.2
2019-03-28T07:37:52.596Z,53.1
2019-03-28T07:38:42.936Z,53.1
2019-03-28T07:39:33.034Z,53.1
2019-03-28T07:40:22.818Z,53.1
2019-03-28T07:41:12.870Z,53.1
2019-03-28T07:42:03.111Z,53.1
2019-03-28T07:42:53.544Z,53.1
2019-03-28T07:43:43.705Z,53.1
2019-03-28T07:44:33.878Z,53.1
2019-03-28T07:45:23.890Z,53.1
2019-03-28T07:46:13.463Z,53.1
2019-03-28T07:47:04.168Z,53.1
2019-03-28T07:47:55.025Z,53
2019-03-28T07:48:43.318Z,53
2019-03-28T07:49:33.925Z,53
2019-03-28T07:50:24.260Z,53
2019-03-28T07:51:14.340Z,52.9
2019-03-28T07:52:04.845Z,52.9
2019-03-28T07:52:55.130Z,52.9
2019-03-28T07:53:44.527Z,52.9
2019-03-28T07:54:34.573Z,52.9
2019-03-28T07:55:24.344Z,52.9
2019-03-28T07:56:14.409Z,52.9
2019-03-28T07:57:04.877Z,52.9
2019-03-28T07:57:54.238Z,52.9
2019-03-28T07:58:47.954Z,52.9
2019-03-28T07:59:34.947Z,52.9
2019-03-28T08:00:24.979Z,52.9
2019-03-28T08:01:18.511Z,52.9
2019-03-28T08:02:04.845Z,52.9
2019-03-28T08:02:58.887Z,52.8
2019-03-28T08:03:45.219Z,52.8
2019-03-28T08:04:35.001Z,52.8
2019-03-28T08:05:24.729Z,52.8
2019-03-28T08:06:16.569Z,52.8
2019-03-28T08:07:05.202Z,52.8
2019-03-28T08:07:55.541Z,52.8
2019-03-28T08:08:47.830Z,52.8
2019-03-28T08:09:40.332Z,52.8
2019-03-28T08:10:25.426Z,52.8
2019-03-28T08:11:16.286Z,52.8
2019-03-28T08:12:21.320Z,52.7
2019-03-28T08:12:55.882Z,52.7
2019-03-28T08:13:45.711Z,52.7
2019-03-28T08:14:35.796Z,52.7
2019-03-28T08:15:26.075Z,52.7
2019-03-28T08:16:15.300Z,52.7
2019-03-28T08:17:05.712Z,52.6
2019-03-28T08:17:56.228Z,52.6
2019-03-28T08:18:47.079Z,52.6
2019-03-28T08:19:36.432Z,52.6
2019-03-28T08:20:25.876Z,52.6
2019-03-28T08:21:16.484Z,52.6
2019-03-28T08:22:06.070Z,52.6
2019-03-28T08:22:56.123Z,52.6
2019-03-28T08:23:46.178Z,52.6
2019-03-28T08:24:35.958Z,52.6
2019-03-28T08:25:26.303Z,52.6
2019-03-28T08:26:16.360Z,52.6
2019-03-28T08:27:06.519Z,52.6
2019-03-28T08:27:59.987Z,52.6
2019-03-28T08:28:46.535Z,52.5
2019-03-28T08:29:36.608Z,52.5
2019-03-28T08:30:26.654Z,52.5
2019-03-28T08:31:17.865Z,52.5
2019-03-28T08:32:06.851Z,52.5
2019-03-28T08:32:56.575Z,52.5
2019-03-28T08:33:46.887Z,52.5
2019-03-28T08:34:36.965Z,52.4
2019-03-28T08:35:27.125Z,52.4
2019-03-28T08:36:17.068Z,52.4
2019-03-28T08:37:06.689Z,52.4
2019-03-28T08:37:57.255Z,52.4
2019-03-28T08:38:47.257Z,52.4
2019-03-28T08:39:37.303Z,52.4
2019-03-28T08:45:27.448Z,52.3
2019-03-28T08:46:17.808Z,52.3
2019-03-28T08:47:08.915Z,52.3
2019-03-28T08:47:57.685Z,52.3
2019-03-28T08:48:47.709Z,52.3
2019-03-28T08:49:37.774Z,52.3
2019-03-28T08:50:28.111Z,52.3
2019-03-28T08:51:17.898Z,52.3
2019-03-28T08:52:11.427Z,52.3
2019-03-28T08:52:57.809Z,52.3
2019-03-28T08:53:48.059Z,52.3
2019-03-28T08:54:38.401Z,52.2
2019-03-28T08:55:28.581Z,52.2
2019-03-28T08:56:18.068Z,52.2
2019-03-28T08:57:08.649Z,52.2
2019-03-28T08:57:58.661Z,52.2
2019-03-28T08:58:48.781Z,52.2
2019-03-28T08:59:38.764Z,52.2
2019-03-28T09:00:55.536Z,52.2
2019-03-28T09:01:18.969Z,52.1
2019-03-28T09:02:09.002Z,52.1
2019-03-28T09:02:58.719Z,52.1
2019-03-28T09:03:52.756Z,52.1
2019-03-28T09:04:39.587Z,52.1
2019-03-28T09:05:29.123Z,52.1
2019-03-28T09:06:21.117Z,52.1
2019-03-28T09:07:09.775Z,52.1
2019-03-28T09:07:59.835Z,52.1
2019-03-28T09:08:49.056Z,52.1
2019-03-28T09:09:39.956Z,52.1
2019-03-28T09:10:29.761Z,52.1
2019-03-28T09:11:23.390Z,52.1
2019-03-28T09:12:09.946Z,52
2019-03-28T09:13:00.205Z,52
2019-03-28T09:13:49.988Z,52
2019-03-28T09:14:40.455Z,52
2019-03-28T09:15:45.298Z,52
2019-03-28T09:16:20.460Z,52
2019-03-28T09:22:10.306Z,51.9
2019-03-28T09:23:00.730Z,51.9
2019-03-28T09:23:50.974Z,51.9
2019-03-28T09:24:41.039Z,51.9
2019-03-28T09:25:31.077Z,51.9
2019-03-28T09:26:21.142Z,51.9
2019-03-28T09:27:10.932Z,51.9
2019-03-28T09:28:00.993Z,51.9
2019-03-28T09:28:51.391Z,51.8
2019-03-28T09:29:40.842Z,51.8
2019-03-28T09:30:31.489Z,51.8
2019-03-28T09:31:23.764Z,51.8
2019-03-28T09:32:11.000Z,51.8
2019-03-28T09:33:00.959Z,51.8
2019-03-28T09:33:51.420Z,51.8
2019-03-28T09:34:41.749Z,51.8
2019-03-28T09:35:32.398Z,51.8
2019-03-28T09:36:21.982Z,51.8
2019-03-28T09:37:11.975Z,51.8
2019-03-28T09:38:01.432Z,51.8
2019-03-28T09:38:51.775Z,51.8
2019-03-28T09:39:41.864Z,51.7
2019-03-28T09:40:32.224Z,51.7
2019-03-28T09:41:21.964Z,51.7
2019-03-28T09:42:12.273Z,51.7
2019-03-28T09:43:02.187Z,51.7
2019-03-28T09:43:59.235Z,51.7
2019-03-28T09:44:42.481Z,51.6
2019-03-28T09:45:33.153Z,51.6
2019-03-28T09:46:21.834Z,51.6
2019-03-28T09:47:11.604Z,51.6
2019-03-28T09:48:02.245Z,51.6
2019-03-28T09:48:51.811Z,51.6
2019-03-28T09:49:42.349Z,51.6
2019-03-28T09:50:32.608Z,51.5
2019-03-28T09:51:22.192Z,51.4
2019-03-28T09:52:13.018Z,51.4
2019-03-28T09:53:03.839Z,51.3
2019-03-28T09:53:52.994Z,51.3
2019-03-28T09:54:42.343Z,51.3
2019-03-28T09:55:33.011Z,51.3
2019-03-28T09:56:23.038Z,51.3
2019-03-28T09:57:13.071Z,51.2
2019-03-28T09:58:03.415Z,51.3
2019-03-28T09:58:53.486Z,51.3
2019-03-28T09:59:43.318Z,51.3
2019-03-28T10:00:38.004Z,51.4
2019-03-28T10:01:23.438Z,51.4
2019-03-28T10:02:13.455Z,51.5
2019-03-28T10:03:03.064Z,51.6
2019-03-28T10:03:53.847Z,51.7
2019-03-28T10:06:20.627Z,51.8
2019-03-28T10:07:10.414Z,51.9
2019-03-28T10:08:50.648Z,52
2019-03-28T10:09:42.518Z,52.1
2019-03-28T10:10:31.197Z,52.1
2019-03-28T10:11:20.180Z,52.2
2019-03-28T10:12:11.335Z,52.3
2019-03-28T10:13:01.397Z,52.3
2019-03-28T10:14:41.497Z,52.4
2019-03-28T10:15:31.565Z,52.4
2019-03-28T10:16:21.618Z,52.6
2019-03-28T10:17:10.919Z,52.6
2019-03-28T10:18:01.251Z,52.7
2019-03-28T10:18:51.831Z,52.8
2019-03-28T10:19:41.842Z,52.8
2019-03-28T10:20:31.913Z,52.9
2019-03-28T10:21:21.714Z,52.9
2019-03-28T10:22:12.066Z,53
2019-03-28T10:23:02.106Z,53.1
2019-03-28T10:23:51.434Z,53.1
2019-03-28T10:24:41.500Z,53.2
2019-03-28T10:25:31.783Z,53.3
2019-03-28T10:26:22.048Z,53.3
2019-03-28T10:27:12.436Z,53.3
2019-03-28T10:28:01.901Z,53.3
2019-03-28T10:28:52.543Z,53.3
2019-03-28T10:29:42.313Z,53.4
2019-03-28T10:30:32.635Z,53.4
2019-03-28T10:31:22.208Z,53.5
2019-03-28T10:32:12.280Z,53.6
2019-03-28T10:33:02.352Z,53.6
2019-03-28T10:33:53.895Z,53.6
2019-03-28T10:34:42.184Z,53.6
2019-03-28T10:35:32.442Z,53.6
2019-03-28T10:36:22.563Z,53.6
2019-03-28T10:37:12.856Z,53.6
2019-03-28T10:38:03.189Z,53.6
2019-03-28T10:38:52.956Z,53.6
2019-03-28T10:39:43.282Z,53.6
2019-03-28T10:40:33.075Z,53.6
2019-03-28T10:41:26.849Z,53.6
2019-03-28T10:42:13.477Z,53.6
2019-03-28T10:43:03.292Z,53.6
2019-03-28T10:43:53.613Z,53.6
2019-03-28T10:44:43.663Z,53.6
2019-03-28T10:45:37.524Z,53.6
2019-03-28T10:46:23.764Z,53.6
2019-03-28T10:47:13.604Z,53.6
2019-03-28T10:48:03.885Z,53.6
2019-03-28T10:48:57.395Z,53.6
2019-03-28T10:49:44.886Z,53.7
2019-03-28T10:50:48.865Z,53.7
2019-03-28T10:51:24.142Z,53.8
2019-03-28T10:52:15.904Z,53.8
2019-03-28T10:53:04.003Z,53.8
2019-03-28T10:53:54.359Z,53.8
2019-03-28T10:54:44.151Z,53.8
2019-03-28T10:55:33.676Z,53.9
2019-03-28T10:56:27.159Z,53.9
2019-03-28T10:57:34.577Z,53.9
2019-03-28T10:58:20.526Z,54
2019-03-28T10:58:54.218Z,54
2019-03-28T10:59:44.264Z,54
2019-03-28T11:00:34.056Z,54.1
2019-03-28T11:01:54.129Z,54.1
2019-03-28T11:02:15.988Z,54.2
2019-03-28T11:03:06.868Z,54.2
2019-03-28T11:03:54.763Z,54.3
2019-03-28T11:04:45.111Z,54.3
2019-03-28T11:05:35.181Z,54.3
2019-03-28T11:06:25.198Z,54.4
2019-03-28T11:07:15.018Z,54.4
2019-03-28T11:08:05.350Z,54.5
2019-03-28T11:08:55.414Z,54.6
2019-03-28T11:09:45.195Z,54.6
2019-03-28T11:10:35.578Z,54.6
2019-03-28T11:11:26.413Z,54.7
2019-03-28T11:12:15.358Z,54.8
2019-03-28T11:13:09.081Z,54.8
2019-03-28T11:13:55.223Z,54.9
2019-03-28T11:14:49.166Z,54.9
2019-03-28T11:15:34.833Z,54.9
2019-03-28T11:16:25.684Z,55
2019-03-28T11:17:15.987Z,55
2019-03-28T11:18:05.795Z,55.1
2019-03-28T11:18:56.100Z,55.1
2019-03-28T11:19:46.863Z,55.1
2019-03-28T11:20:40.970Z,55.1
2019-03-28T11:21:26.284Z,55.2
2019-03-28T11:22:16.085Z,55.2
2019-03-28T11:23:05.690Z,55.2
2019-03-28T11:23:56.200Z,55.3
2019-03-28T11:24:50.032Z,55.3
2019-03-28T11:25:36.132Z,55.3
2019-03-28T11:26:26.463Z,55.3
2019-03-28T11:27:16.732Z,55.3
2019-03-28T11:28:06.967Z,55.4
2019-03-28T11:28:56.937Z,55.4
2019-03-28T11:29:46.917Z,55.4
2019-03-28T11:30:37.194Z,55.4
2019-03-28T11:31:26.732Z,55.4
2019-03-28T11:32:16.549Z,55.5
2019-03-28T11:33:10.162Z,55.5
2019-03-28T11:33:57.024Z,55.6
2019-03-28T11:34:47.245Z,55.6
2019-03-28T11:35:37.022Z,55.6
2019-03-28T11:36:28.199Z,55.6
2019-03-28T11:37:31.387Z,55.6
2019-03-28T11:38:10.583Z,55.6
2019-03-28T11:38:58.506Z,55.6
2019-03-28T11:39:48.761Z,55.7